createdAt,value
2019-04-11T00:00:38.245Z,3.92
2019-04-11T00:03:07.332Z,3.60
2019-04-11T00:05:37.060Z,3.60
2019-04-11T00:08:06.328Z,3.42
2019-04-11T00:10:37.406Z,4.28
2019-04-11T00:13:17.286Z,4.40
2019-04-11T00:15:38.569Z,3.65
2019-04-11T00:18:08.288Z,3.42
2019-04-11T00:20:38.137Z,4.20
2019-04-11T00:23:08.128Z,3.15
2019-04-11T00:25:37.895Z,3.70
2019-04-11T00:28:07.848Z,3.60
2019-04-11T00:30:37.159Z,4.12
2019-04-11T00:33:07.771Z,4.47
2019-04-11T00:35:37.156Z,3.67
2019-04-11T00:38:07.715Z,3.10
2019-04-11T00:40:37.451Z,3.75
2019-04-11T00:43:07.344Z,4.03
2019-04-11T00:45:36.500Z,4.87
2019-04-11T00:48:05.834Z,4.03
2019-04-11T00:50:35.038Z,3.65
2019-04-11T00:53:05.498Z,4.10
2019-04-11T00:55:34.227Z,4.15
2019-04-11T00:58:03.644Z,3.70
2019-04-11T01:00:33.347Z,4.08
2019-04-11T01:03:03.822Z,4.10
2019-04-11T01:05:33.896Z,4.22
2019-04-11T01:08:03.213Z,4.62
2019-04-11T01:10:32.341Z,4.37
2019-04-11T01:13:01.398Z,4.58
2019-04-11T01:15:31.390Z,3.80
2019-04-11T01:18:01.475Z,3.87
2019-04-11T01:20:31.400Z,4.42
2019-04-11T01:23:00.647Z,4.70
2019-04-11T01:25:30.689Z,4.45
2019-04-11T01:28:00.558Z,4.97
2019-04-11T01:30:36.942Z,4.15
2019-04-11T01:33:06.652Z,4.33
2019-04-11T01:35:35.877Z,4.37
2019-04-11T01:38:06.152Z,4.17
2019-04-11T01:40:36.023Z,4.55
2019-04-11T01:43:06.009Z,4.28
2019-04-11T01:45:35.833Z,4.30
2019-04-11T01:48:19.583Z,4.53
2019-04-11T01:50:50.245Z,4.12
2019-04-11T01:53:19.715Z,3.40
2019-04-11T01:55:48.749Z,4.30
2019-04-11T01:58:18.367Z,4.47
2019-04-11T02:01:01.826Z,4.00
2019-04-11T02:03:50.006Z,4.37
2019-04-11T02:06:19.888Z,4.50
2019-04-11T02:08:49.511Z,4.37
2019-04-11T02:11:19.216Z,3.72
2019-04-11T02:13:48.636Z,4.00
2019-04-11T02:16:19.014Z,4.22
2019-04-11T02:18:48.488Z,4.30
2019-04-11T02:21:17.915Z,4.22
2019-04-11T02:23:53.185Z,3.80
2019-04-11T02:26:29.367Z,4.20
2019-04-11T02:28:59.333Z,4.55
2019-04-11T02:31:30.562Z,3.45
2019-04-11T02:34:01.978Z,4.17
2019-04-11T02:36:32.186Z,4.25
2019-04-11T02:39:09.834Z,4.20
2019-04-11T02:41:37.290Z,4.35
2019-04-11T02:44:26.570Z,4.70
2019-04-11T02:46:47.495Z,3.92
2019-04-11T02:49:10.358Z,4.37
2019-04-11T02:51:40.767Z,4.42
2019-04-11T02:54:11.572Z,4.17
2019-04-11T02:56:43.540Z,5.55
2019-04-11T02:59:13.502Z,3.50
2019-04-11T03:01:44.020Z,4.20
2019-04-11T03:04:14.836Z,4.75
2019-04-11T03:06:45.755Z,4.35
2019-04-11T03:09:15.872Z,4.85
2019-04-11T03:11:47.279Z,6.03
2019-04-11T03:14:19.037Z,5.35
2019-04-11T03:16:57.443Z,5.00
2019-04-11T03:19:36.145Z,4.78
2019-04-11T03:21:59.357Z,4.58
2019-04-11T03:24:31.118Z,4.37
2019-04-11T03:27:04.688Z,4.53
2019-04-11T03:29:33.808Z,4.72
2019-04-11T03:32:40.106Z,4.83
2019-04-11T03:37:28.790Z,3.98
2019-04-11T03:39:59.352Z,4.50
2019-04-11T03:42:20.495Z,5.12
2019-04-11T03:44:47.061Z,4.37
2019-04-11T03:47:27.810Z,5.05
2019-04-11T03:49:51.033Z,4.12
2019-04-11T03:52:14.957Z,4.87
2019-04-11T03:54:45.531Z,4.30
2019-04-11T03:57:15.620Z,4.28
2019-04-11T03:59:47.876Z,4.87
2019-04-11T04:02:17.506Z,5.05
2019-04-11T04:04:49.188Z,4.55
2019-04-11T04:07:19.159Z,4.30
2019-04-11T04:09:51.062Z,3.87
2019-04-11T04:12:20.996Z,3.92
2019-04-11T04:15:04.566Z,4.60
2019-04-11T04:18:03.546Z,4.67
2019-04-11T04:20:45.969Z,5.33
2019-04-11T04:23:27.381Z,5.42
2019-04-11T04:25:58.592Z,4.22
2019-04-11T04:28:29.427Z,4.95
2019-04-11T04:31:00.252Z,4.65
2019-04-11T04:33:31.383Z,5.33
2019-04-11T04:36:02.420Z,4.40
2019-04-11T04:38:33.823Z,4.40
2019-04-11T04:41:16.367Z,4.53
2019-04-11T04:43:36.425Z,4.97
2019-04-11T04:46:23.761Z,4.67
2019-04-11T04:48:38.019Z,5.05
2019-04-11T04:51:09.783Z,6.75
2019-04-11T04:53:39.035Z,4.83
2019-04-11T04:56:09.038Z,4.78
2019-04-11T04:58:39.817Z,5.12
2019-04-11T05:01:10.018Z,4.97
2019-04-11T05:03:40.463Z,5.08
2019-04-11T05:06:10.567Z,5.67
2019-04-11T05:08:41.147Z,4.80
2019-04-11T05:11:10.507Z,6.25
2019-04-11T05:13:41.234Z,4.95
2019-04-11T05:16:17.194Z,5.58
2019-04-11T05:18:42.024Z,5.12
2019-04-11T05:21:11.555Z,6.10
2019-04-11T05:23:41.907Z,5.47
2019-04-11T05:26:11.142Z,6.00
2019-04-11T05:28:40.476Z,5.83
2019-04-11T05:31:10.162Z,6.65
2019-04-11T05:33:57.182Z,4.70
2019-04-11T05:36:26.207Z,5.80
2019-04-11T05:38:55.514Z,5.70
2019-04-11T05:41:25.114Z,5.55
2019-04-11T05:43:55.778Z,6.08
2019-04-11T05:46:33.485Z,5.75
2019-04-11T05:49:29.056Z,6.55
2019-04-11T05:52:02.127Z,5.37
2019-04-11T05:54:38.685Z,5.15
2019-04-11T05:57:07.134Z,5.60
2019-04-11T05:59:37.086Z,6.78
2019-04-11T06:02:35.322Z,6.30
2019-04-11T06:05:15.799Z,6.97
2019-04-11T06:07:55.592Z,5.25
2019-04-11T06:10:50.467Z,6.03
2019-04-11T06:13:30.385Z,5.85
2019-04-11T06:16:01.365Z,6.08
2019-04-11T06:18:48.228Z,5.50
2019-04-11T06:21:26.169Z,6.45
2019-04-11T06:24:03.615Z,6.05
2019-04-11T06:26:51.143Z,5.72
2019-04-11T06:29:29.513Z,5.55
2019-04-11T06:32:37.272Z,5.95
2019-04-11T06:35:13.513Z,5.60
2019-04-11T06:38:10.650Z,5.70
2019-04-11T06:40:54.405Z,6.10
2019-04-11T06:43:32.053Z,5.08
2019-04-11T06:46:15.140Z,5.10
2019-04-11T06:49:02.507Z,5.92
2019-04-11T06:51:36.327Z,6.00
2019-04-11T06:54:39.856Z,7.03
2019-04-11T06:57:13.995Z,5.78
2019-04-11T06:59:44.962Z,6.70
2019-04-11T07:02:19.432Z,7.20
2019-04-11T07:04:53.861Z,6.35
2019-04-11T07:07:27.274Z,6.20
2019-04-11T07:09:57.963Z,6.00
2019-04-11T07:12:35.169Z,6.40
2019-04-11T07:15:17.100Z,6.05
2019-04-11T07:18:06.249Z,6.92
2019-04-11T07:21:00.652Z,6.62
2019-04-11T07:23:49.006Z,6.67
2019-04-11T07:26:50.108Z,7.45
2019-04-11T07:29:51.712Z,6.60
2019-04-11T07:32:27.700Z,6.00
2019-04-11T07:35:17.254Z,7.35
2019-04-11T07:37:49.179Z,6.45
2019-04-11T07:40:38.948Z,7.83
2019-04-11T07:43:18.535Z,8.30
2019-04-11T07:46:06.851Z,7.70
2019-04-11T07:48:38.656Z,7.50
2019-04-11T07:51:23.341Z,8.43
2019-04-11T07:53:54.638Z,7.50
2019-04-11T07:56:41.939Z,6.62
2019-04-11T07:59:23.588Z,7.60
2019-04-11T08:02:15.978Z,7.03
2019-04-11T08:05:08.750Z,8.28
2019-04-11T08:07:57.406Z,7.95
2019-04-11T08:10:37.201Z,8.28
2019-04-11T08:13:12.278Z,7.30
2019-04-11T08:15:59.312Z,7.10
2019-04-11T08:18:57.226Z,7.47
2019-04-11T08:21:44.113Z,7.65
2019-04-11T08:24:18.707Z,7.00
2019-04-11T08:27:15.829Z,8.13
2019-04-11T08:29:47.583Z,6.97
2019-04-11T08:32:41.879Z,8.45
2019-04-11T08:35:24.049Z,7.80
2019-04-11T08:38:18.559Z,8.68
2019-04-11T08:41:07.330Z,7.80
2019-04-11T08:43:37.421Z,8.00
2019-04-11T08:46:12.940Z,8.80
2019-04-11T08:48:45.626Z,7.65
2019-04-11T08:51:15.055Z,7.55
2019-04-11T08:54:04.906Z,8.58
2019-04-11T08:56:34.863Z,7.40
2019-04-11T08:59:44.116Z,8.05
2019-04-11T09:02:18.533Z,7.35
2019-04-11T09:05:11.997Z,7.03
2019-04-11T09:07:41.627Z,7.40
2019-04-11T09:10:28.825Z,8.70
2019-04-11T09:13:17.410Z,6.78
2019-04-11T09:16:05.481Z,8.00
2019-04-11T09:18:34.750Z,8.03
2019-04-11T09:21:40.982Z,7.70
2019-04-11T09:24:26.770Z,7.80
2019-04-11T09:27:14.284Z,7.27
2019-04-11T09:29:46.734Z,7.00
2019-04-11T09:32:33.953Z,7.20
2019-04-11T09:35:10.042Z,7.30
2019-04-11T09:37:43.062Z,7.60
2019-04-11T09:40:36.152Z,7.13
2019-04-11T09:43:13.728Z,7.83
2019-04-11T09:46:02.060Z,6.40
2019-04-11T09:48:50.384Z,6.97
2019-04-11T09:51:40.099Z,7.50
2019-04-11T09:54:35.136Z,7.97
2019-04-11T09:57:24.743Z,7.80
2019-04-11T10:00:26.711Z,8.23
2019-04-11T10:02:58.686Z,7.77
2019-04-11T10:05:38.385Z,6.80
2019-04-11T10:08:33.665Z,7.73
2019-04-11T10:11:40.170Z,9.30
2019-04-11T10:14:15.524Z,8.57
2019-04-11T10:17:02.380Z,9.17
2019-04-11T10:19:34.402Z,7.70
2019-04-11T10:22:09.096Z,9.03
2019-04-11T10:25:03.522Z,7.70
2019-04-11T10:27:51.143Z,7.20
2019-04-11T10:30:38.146Z,7.63
2019-04-11T10:33:12.969Z,7.73
2019-04-11T10:36:07.539Z,7.00
2019-04-11T10:38:36.472Z,6.50
2019-04-11T10:41:30.689Z,7.00
2019-04-11T10:43:59.720Z,7.10
2019-04-11T10:46:47.431Z,7.37
2019-04-11T10:49:36.544Z,7.30
2019-04-11T10:52:10.415Z,7.30
2019-04-11T10:54:40.805Z,6.12
2019-04-11T10:57:27.913Z,7.10
2019-04-11T10:59:56.846Z,8.60
2019-04-11T11:02:41.853Z,8.35
2019-04-11T11:05:12.822Z,7.75
2019-04-11T11:07:44.613Z,8.23
2019-04-11T11:10:21.642Z,7.30
2019-04-11T11:13:13.930Z,7.33
2019-04-11T11:15:47.548Z,7.08
2019-04-11T11:19:02.037Z,8.10
2019-04-11T11:21:25.946Z,7.20
2019-04-11T11:24:10.743Z,7.15
2019-04-11T11:26:41.197Z,7.85
2019-04-11T11:29:29.375Z,7.80
2019-04-11T11:32:07.137Z,6.28
2019-04-11T11:34:44.432Z,7.65
2019-04-11T11:37:31.385Z,6.92
2019-04-11T11:40:19.040Z,7.22
2019-04-11T11:43:06.581Z,8.47
2019-04-11T11:45:56.590Z,7.60
2019-04-11T11:48:46.369Z,7.03
2019-04-11T11:51:45.813Z,6.87
2019-04-11T11:54:29.460Z,8.25
2019-04-11T11:57:02.381Z,7.75
2019-04-11T11:59:36.950Z,7.97
2019-04-11T12:02:08.977Z,8.73
2019-04-11T12:04:46.486Z,7.73
2019-04-11T12:07:16.983Z,8.45
2019-04-11T12:10:11.275Z,7.93
2019-04-11T12:13:03.278Z,8.20
2019-04-11T12:15:51.131Z,7.77
2019-04-11T12:18:28.687Z,9.00
2019-04-11T12:21:03.607Z,8.40
2019-04-11T12:23:55.473Z,8.07
2019-04-11T12:26:16.811Z,8.50
2019-04-11T12:29:18.567Z,8.10
2019-04-11T12:31:52.322Z,8.77
2019-04-11T12:34:47.186Z,7.63
2019-04-11T12:37:29.860Z,9.20
2019-04-11T12:40:26.785Z,8.87
2019-04-11T12:42:56.204Z,8.63
2019-04-11T12:45:47.115Z,8.27
2019-04-11T12:48:16.179Z,8.10
2019-04-11T12:51:07.254Z,8.10
2019-04-11T12:53:36.515Z,9.30
2019-04-11T12:56:27.700Z,8.87
2019-04-11T12:59:21.645Z,8.10
2019-04-11T13:02:08.796Z,8.23
2019-04-11T13:04:45.033Z,7.73
2019-04-11T13:07:33.083Z,8.80
2019-04-11T13:10:33.429Z,8.90
2019-04-11T13:13:24.523Z,7.80
2019-04-11T13:16:21.500Z,8.60
2019-04-11T13:19:22.360Z,9.10
2019-04-11T13:21:57.460Z,8.40
2019-04-11T13:24:48.206Z,9.00
2019-04-11T13:27:21.211Z,8.90
2019-04-11T13:30:09.250Z,8.83
2019-04-11T13:32:52.605Z,8.40
2019-04-11T13:35:39.828Z,9.37
2019-04-11T13:38:11.255Z,7.67
2019-04-11T13:41:02.184Z,8.30
2019-04-11T13:43:42.154Z,7.63
2019-04-11T13:46:30.264Z,8.40
2019-04-11T13:49:09.904Z,8.60
2019-04-11T13:51:57.137Z,8.27
2019-04-11T13:54:42.696Z,9.10
2019-04-11T13:57:29.561Z,9.30
2019-04-11T14:00:16.682Z,9.10
2019-04-11T14:03:12.123Z,9.13
2019-04-11T14:05:42.461Z,8.57
2019-04-11T14:08:14.381Z,9.43
2019-04-11T14:10:49.524Z,9.53
2019-04-11T14:13:19.271Z,9.85
2019-04-11T14:15:50.856Z,8.53
2019-04-11T14:18:32.423Z,8.77
2019-04-11T14:21:11.742Z,9.27
2019-04-11T14:23:57.490Z,8.07
2019-04-11T14:26:38.355Z,8.90
2019-04-11T14:29:29.551Z,8.80
2019-04-11T14:32:13.635Z,8.40
2019-04-11T14:34:50.720Z,8.40
2019-04-11T14:37:38.062Z,8.65
2019-04-11T14:40:10.651Z,7.40
2019-04-11T14:42:49.611Z,7.73
2019-04-11T14:45:40.838Z,9.23
2019-04-11T14:48:15.993Z,6.62
2019-04-11T14:51:16.877Z,8.73
2019-04-11T14:54:05.162Z,8.90
2019-04-11T14:56:34.956Z,9.18
2019-04-11T14:59:26.002Z,9.35
2019-04-11T15:02:01.330Z,7.47
2019-04-11T15:04:57.119Z,8.18
2019-04-11T15:07:26.108Z,7.67
2019-04-11T15:10:14.705Z,9.10
2019-04-11T15:12:45.743Z,8.63
2019-04-11T15:15:34.049Z,9.70
2019-04-11T15:18:04.314Z,9.10
2019-04-11T15:20:55.223Z,9.13
2019-04-11T15:23:29.491Z,8.85
2019-04-11T15:26:23.403Z,8.38
2019-04-11T15:29:14.499Z,8.65
2019-04-11T15:32:05.330Z,7.22
2019-04-11T15:34:48.124Z,9.03
2019-04-11T15:37:45.479Z,9.25
2019-04-11T15:40:17.313Z,7.60
2019-04-11T15:43:03.771Z,8.83
2019-04-11T15:45:40.387Z,8.90
2019-04-11T15:48:43.963Z,7.73
2019-04-11T15:51:31.804Z,8.03
2019-04-11T15:54:25.910Z,8.05
2019-04-11T15:57:12.707Z,8.28
2019-04-11T16:00:07.659Z,8.98
2019-04-11T16:02:57.397Z,8.55
2019-04-11T16:05:48.593Z,8.80
2019-04-11T16:08:43.919Z,7.78
2019-04-11T16:11:31.055Z,7.80
2019-04-11T16:14:11.471Z,8.30
2019-04-11T16:17:13.709Z,7.90
2019-04-11T16:19:50.232Z,9.83
2019-04-11T16:22:55.012Z,7.87
2019-04-11T16:25:22.511Z,8.90
2019-04-11T16:28:10.714Z,7.85
2019-04-11T16:30:54.567Z,7.70
2019-04-11T16:33:51.683Z,7.80
2019-04-11T16:36:26.987Z,8.43
2019-04-11T16:39:13.225Z,7.92
2019-04-11T16:42:02.769Z,8.10
2019-04-11T16:44:57.018Z,7.62
2019-04-11T16:47:56.274Z,8.23
2019-04-11T16:50:24.760Z,7.78
2019-04-11T16:52:53.825Z,6.80
2019-04-11T16:55:23.016Z,8.55
2019-04-11T16:57:51.997Z,8.00
2019-04-11T17:00:21.266Z,9.65
2019-04-11T17:02:54.699Z,8.05
2019-04-11T17:05:21.347Z,7.70
2019-04-11T17:08:11.711Z,7.45
2019-04-11T17:10:58.698Z,7.28
2019-04-11T17:13:27.968Z,7.80
2019-04-11T17:15:59.804Z,8.05
2019-04-11T17:18:27.746Z,8.23
2019-04-11T17:20:56.860Z,7.50
2019-04-11T17:23:25.924Z,7.87
2019-04-11T17:25:54.959Z,8.00
2019-04-11T17:28:23.836Z,7.15
2019-04-11T17:30:55.705Z,7.60
2019-04-11T17:33:27.806Z,7.30
2019-04-11T17:35:54.846Z,7.72
2019-04-11T17:38:23.883Z,7.65
2019-04-11T17:40:53.035Z,7.17
2019-04-11T17:43:22.006Z,7.00
2019-04-11T17:45:50.999Z,7.55
2019-04-11T17:48:20.044Z,7.95
2019-04-11T17:50:49.212Z,8.45
2019-04-11T17:53:18.199Z,6.87
2019-04-11T17:55:47.249Z,7.42
2019-04-11T17:58:16.182Z,8.68
2019-04-11T18:00:48.970Z,6.47
2019-04-11T18:03:17.930Z,8.43
2019-04-11T18:05:47.596Z,9.60
2019-04-11T18:08:19.767Z,8.70
2019-04-11T18:10:48.734Z,8.20
2019-04-11T18:13:18.340Z,10.65
2019-04-11T18:15:48.077Z,9.90
2019-04-11T18:18:17.488Z,7.58
2019-04-11T18:20:47.168Z,10.50
2019-04-11T18:23:19.631Z,8.53
2019-04-11T18:25:48.855Z,8.80
2019-04-11T18:28:21.650Z,8.10
2019-04-11T18:30:53.773Z,8.43
2019-04-11T18:33:21.853Z,7.92
2019-04-11T18:35:51.780Z,8.50
2019-04-11T18:38:21.488Z,6.97
2019-04-11T18:40:51.313Z,7.10
2019-04-11T18:43:21.195Z,7.33
2019-04-11T18:45:50.891Z,7.55
2019-04-11T18:48:20.719Z,7.45
2019-04-11T18:50:50.781Z,8.48
2019-04-11T18:53:21.389Z,7.95
2019-04-11T18:55:50.795Z,9.63
2019-04-11T18:58:20.498Z,9.88
2019-04-11T19:00:50.211Z,8.50
2019-04-11T19:03:19.614Z,8.63
2019-04-11T19:05:49.115Z,7.70
2019-04-11T19:08:18.647Z,9.10
2019-04-11T19:10:48.231Z,7.62
2019-04-11T19:13:17.734Z,8.03
2019-04-11T19:15:47.143Z,6.80
2019-04-11T19:18:17.512Z,8.15
2019-04-11T19:20:50.115Z,7.50
2019-04-11T19:23:18.419Z,7.45
2019-04-11T19:25:47.923Z,6.45
2019-04-11T19:28:17.487Z,7.92
2019-04-11T19:30:47.242Z,7.10
2019-04-11T19:33:19.094Z,7.25
2019-04-11T19:35:47.927Z,6.87
2019-04-11T19:38:31.310Z,7.30
2019-04-11T19:41:01.033Z,7.10
2019-04-11T19:43:30.685Z,7.58
2019-04-11T19:46:00.251Z,6.87
2019-04-11T19:48:29.784Z,7.75
2019-04-11T19:50:59.532Z,5.83
2019-04-11T19:53:32.804Z,6.50
2019-04-11T19:56:10.046Z,6.37
2019-04-11T19:58:39.378Z,6.40
2019-04-11T20:01:09.160Z,6.72
2019-04-11T20:03:38.628Z,6.33
2019-04-11T20:06:08.177Z,5.70
2019-04-11T20:08:37.782Z,5.95
2019-04-11T20:11:07.386Z,5.67
2019-04-11T20:13:37.090Z,6.30
2019-04-11T20:16:12.505Z,5.80
2019-04-11T20:18:51.086Z,5.75
2019-04-11T20:21:14.401Z,6.08
2019-04-11T20:23:45.767Z,5.53
2019-04-11T20:26:15.489Z,5.53
2019-04-11T20:28:45.115Z,5.90
2019-04-11T20:31:15.023Z,6.17
2019-04-11T20:33:44.628Z,6.33
2019-04-11T20:39:15.009Z,6.83
2019-04-11T20:41:42.299Z,6.78
2019-04-11T20:44:11.236Z,7.05
2019-04-11T20:46:40.395Z,6.25
2019-04-11T20:49:09.281Z,6.60
2019-04-11T20:51:38.668Z,6.30
2019-04-11T20:54:08.014Z,6.40
2019-04-11T20:56:39.919Z,6.42
2019-04-11T20:59:10.299Z,8.25
2019-04-11T21:01:39.213Z,9.20
2019-04-11T21:04:08.368Z,18.50
2019-04-11T21:06:38.471Z,6.87
2019-04-11T21:09:18.932Z,5.00
2019-04-11T21:11:51.824Z,5.30
2019-04-11T21:14:31.250Z,4.95
2019-04-11T21:18:43.777Z,4.75
2019-04-11T21:19:53.839Z,5.70
2019-04-11T21:32:00.873Z,5.12
2019-04-11T21:37:16.474Z,5.20
2019-04-11T21:39:49.851Z,6.03
2019-04-11T21:42:26.207Z,5.20
2019-04-11T21:45:07.009Z,5.42
2019-04-11T21:47:56.693Z,4.70
2019-04-11T21:50:26.866Z,4.47
2019-04-11T22:12:17.893Z,4.60
2019-04-11T22:14:52.671Z,4.08
2019-04-11T22:17:25.498Z,4.55
2019-04-11T22:19:58.587Z,4.97
2019-04-11T22:22:30.768Z,5.30
2019-04-11T22:25:03.162Z,4.50
2019-04-11T22:27:38.424Z,4.70
2019-04-11T22:30:10.082Z,4.72
2019-04-11T22:32:42.966Z,4.90
2019-04-11T22:35:13.187Z,4.85
2019-04-11T22:37:59.883Z,4.37
2019-04-11T22:43:24.105Z,5.58
2019-04-11T22:45:56.733Z,4.28
2019-04-11T22:52:42.338Z,4.60
2019-04-11T22:55:14.996Z,4.70
2019-04-11T22:57:52.050Z,4.37
2019-04-11T23:00:30.131Z,4.50
2019-04-11T23:03:18.042Z,4.28
2019-04-11T23:05:59.009Z,4.60
2019-04-11T23:08:40.933Z,4.50
2019-04-11T23:11:21.266Z,4.58
2019-04-11T23:13:52.905Z,3.95
2019-04-11T23:16:22.873Z,4.33
2019-04-11T23:19:02.787Z,4.53
2019-04-11T23:21:35.727Z,4.10
2019-04-11T23:24:33.350Z,4.12
2019-04-11T23:37:51.800Z,4.92
2019-04-11T23:41:28.081Z,3.87
2019-04-11T23:51:30.701Z,4.05
2019-04-11T23:54:23.216Z,3.55
2019-04-11T23:57:08.325Z,3.22
2019-04-11T23:59:39.821Z,3.35
